aviador You're here:

LFMI Decoded Metar

ISTRES in FRANCE
Report Time2017-08-19 01:30:00
UTC Time2017-08-19 01:50:40
Flight Rules vfr VFR
Wind320° at 13 kt
W.Decomp.*RWY 33: 12.8 kt HW 2.3 kt LCW
W.Rank320° ranks 4
Current wind is below 320° avg. (13.0)
Visibility9999 m
Phenomena:N/A
Clouds:N/A
Expected CloudBase > 3,200 ft AGL from Temp-Dew spread
CeilingNone
Temp23°C (ISA +8)
Dew Point15°C (61% RH)
AAT20.0°C
QNH1015 hPa
Density Alt1,188 ft
Elevation79 ft
Report Wrong Elevation
Raw Report
LFMI 190130Z AUTO 32013KT CAVOK 23/15 Q1015 TEMPO 34015G25KT=

Extra information for LFMI:More info

Metar Taf Metar & Taf Last 4 Metars F.Rules Stats Wind Profile Meteogram Temp Stats Airport Information Weather charts Add Link Nearby VenuesMetar ALERT Operation Metar Decoded Social comments